Time;durP1;ratioP1;P1;durP2;ratioP2;P2;SDS_P1;SDS_P2;PMS_P1;PMS_P2;Temp;Humidity;BMP_temperature;BMP_pressure;BME280_temperature;BME280_humidity;BME280_pressure;Samples;Min_cycle;Max_cycle;Signal;HPM_P1;HPM_P2
2021/11/25 00:00:33;;;;;;;4.92;3.17;;;;;;;4.89;100.00;99465.73;1707591;81;22426;-79
2021/11/25 00:03:02;;;;;;;5.20;3.40;;;;;;;4.90;100.00;99470.45;1708063;82;21009;-77
2021/11/25 00:05:29;;;;;;;5.25;3.33;;;;;;;4.89;100.00;99469.61;1721389;82;20921;-76
2021/11/25 00:07:56;;;;;;;5.47;3.08;;;;;;;4.91;100.00;99468.29;1716070;82;20898;-77
2021/11/25 00:10:22;;;;;;;4.22;2.67;;;;;;;4.91;100.00;99469.58;1705756;82;21037;-77
2021/11/25 00:12:52;;;;;;;5.53;5.03;;;;;;;4.90;100.00;99463.98;1716979;82;21560;-77
2021/11/25 00:15:17;;;;;;;3.35;2.75;;;;;;;4.90;100.00;99458.81;1708259;82;21033;-77
2021/11/25 00:17:44;;;;;;;3.55;2.77;;;;;;;4.91;100.00;99460.52;1715887;82;21007;-74
2021/11/25 00:20:12;;;;;;;6.03;2.47;;;;;;;4.90;100.00;99460.11;1706856;82;21601;-77
2021/11/25 00:22:40;;;;;;;3.37;2.50;;;;;;;4.86;100.00;99461.09;1725214;81;20989;-77
2021/11/25 00:25:09;;;;;;;4.33;2.40;;;;;;;4.84;100.00;99455.11;1710857;82;21606;-77
2021/11/25 00:27:36;;;;;;;4.03;2.55;;;;;;;4.84;100.00;99452.52;1710985;82;21028;-77
2021/11/25 00:30:05;;;;;;;3.20;2.65;;;;;;;4.83;100.00;99457.30;1713081;82;21004;-78
2021/11/25 00:32:31;;;;;;;3.72;2.65;;;;;;;4.80;100.00;99453.52;1711081;82;20943;-77
2021/11/25 00:34:58;;;;;;;2.80;2.50;;;;;;;4.78;100.00;99452.70;1722643;82;20962;-77
2021/11/25 00:37:25;;;;;;;2.97;2.10;;;;;;;4.75;100.00;99443.73;1733479;82;21488;-77
2021/11/25 00:39:52;;;;;;;3.37;2.30;;;;;;;4.73;100.00;99450.23;1702195;82;21089;-78
2021/11/25 00:42:18;;;;;;;3.50;1.95;;;;;;;4.76;100.00;99443.70;1725617;82;21670;-77
2021/11/25 00:45:20;;;;;;;3.08;2.00;;;;;;;4.79;100.00;99433.27;1780674;78;22829;-78
2021/11/25 00:47:47;;;;;;;2.53;2.00;;;;;;;4.78;100.00;99439.77;1756443;80;21616;-78
2021/11/25 00:50:17;;;;;;;2.07;1.70;;;;;;;4.78;100.00;99443.64;1757659;80;21866;-78
2021/11/25 00:52:44;;;;;;;2.37;1.62;;;;;;;4.78;99.98;99442.35;1756316;80;20982;-78
2021/11/25 00:55:12;;;;;;;3.98;1.60;;;;;;;4.74;99.85;99440.76;1756026;80;21056;-77
2021/11/25 00:57:39;;;;;;;2.37;1.67;;;;;;;4.74;100.00;99440.76;1761975;80;21500;-78
2021/11/25 01:00:10;;;;;;;2.17;1.62;;;;;;;4.77;100.00;99443.26;1762469;80;21629;-77
2021/11/25 01:02:37;;;;;;;2.47;1.65;;;;;;;4.78;100.00;99445.78;1760864;80;21127;-78
2021/11/25 01:05:05;;;;;;;3.30;2.20;;;;;;;4.76;99.88;99444.13;1758630;80;20995;-77
2021/11/25 01:07:32;;;;;;;2.80;1.75;;;;;;;4.73;99.96;99439.88;1757501;80;20984;-78
2021/11/25 01:09:59;;;;;;;2.10;1.82;;;;;;;4.73;99.98;99433.87;1758773;80;21064;-78
2021/11/25 01:12:28;;;;;;;2.62;1.80;;;;;;;4.75;100.00;99425.62;1757689;80;21597;-78
2021/11/25 01:14:55;;;;;;;1.67;1.47;;;;;;;4.77;100.00;99430.33;1757135;80;21077;-79
2021/11/25 01:17:21;;;;;;;1.70;1.40;;;;;;;4.79;100.00;99430.69;1761567;80;20956;-78
2021/11/25 01:19:48;;;;;;;2.20;1.82;;;;;;;4.77;100.00;99428.58;1759748;80;21098;-77
2021/11/25 01:22:15;;;;;;;2.03;1.57;;;;;;;4.76;100.00;99423.44;1761527;80;21056;-79
2021/11/25 01:24:41;;;;;;;2.63;1.67;;;;;;;4.70;99.92;99421.45;1756455;79;21054;-79
2021/11/25 01:27:08;;;;;;;3.52;1.65;;;;;;;4.66;99.83;99427.58;1758941;80;21056;-77
2021/11/25 01:29:35;;;;;;;2.80;1.70;;;;;;;4.64;99.84;99415.13;1760853;80;21092;-79
2021/11/25 01:32:02;;;;;;;2.27;2.00;;;;;;;4.60;99.76;99410.11;1757441;80;21502;-79
2021/11/25 01:34:29;;;;;;;2.35;1.50;;;;;;;4.59;99.87;99406.64;1757330;80;21116;-79
2021/11/25 01:36:56;;;;;;;2.87;1.87;;;;;;;4.58;99.85;99404.96;1758396;80;21036;-79
2021/11/25 01:39:23;;;;;;;2.20;1.20;;;;;;;4.56;99.85;99401.56;1758903;80;21069;-79
2021/11/25 01:41:49;;;;;;;1.75;1.15;;;;;;;4.56;99.81;99393.80;1757266;80;21056;-79
2021/11/25 01:44:16;;;;;;;1.82;1.27;;;;;;;4.56;99.81;99401.56;1761597;80;21069;-78
2021/11/25 01:46:44;;;;;;;3.87;1.35;;;;;;;4.54;99.73;99402.49;1753260;80;21064;-79
2021/11/25 01:49:11;;;;;;;2.83;1.87;;;;;;;4.55;99.84;99396.45;1740755;81;21127;-79
2021/11/25 01:51:38;;;;;;;1.85;1.50;;;;;;;4.52;99.77;99396.09;1751650;80;21101;-79
2021/11/25 01:54:05;;;;;;;2.80;1.75;;;;;;;4.54;99.89;99380.09;1742323;81;21118;-78
2021/11/25 01:56:32;;;;;;;4.85;2.05;;;;;;;4.56;99.83;99383.47;1745856;81;21516;-79
2021/11/25 01:58:59;;;;;;;2.77;1.57;;;;;;;4.58;99.91;99368.77;1745769;81;21032;-79
2021/11/25 02:01:33;;;;;;;;;;;;;;;4.57;99.74;99372.25;1748914;81;21028;-79
2021/11/25 02:03:54;;;;;;;1.60;1.32;;;;;;;4.55;99.73;99364.97;1747927;81;21239;-79
2021/11/25 02:06:21;;;;;;;1.90;1.32;;;;;;;4.51;99.61;99356.92;1743016;81;21142;-79
2021/11/25 02:08:48;;;;;;;4.80;1.50;;;;;;;4.47;99.57;99348.83;1746153;81;21583;-79
2021/11/25 02:11:15;;;;;;;4.13;1.77;;;;;;;4.45;99.57;99355.77;1740668;81;21020;-79
2021/11/25 02:13:41;;;;;;;2.37;1.60;;;;;;;4.44;99.69;99351.05;1740420;81;21281;-79
2021/11/25 02:16:09;;;;;;;1.63;1.43;;;;;;;4.43;99.55;99340.77;1735264;81;21109;-78
2021/11/25 02:18:36;;;;;;;1.90;1.32;;;;;;;4.39;99.57;99347.75;1741046;81;21054;-78
2021/11/25 02:21:04;;;;;;;2.22;1.60;;;;;;;4.36;99.60;99336.65;1747899;81;21150;-78
2021/11/25 02:23:31;;;;;;;2.40;1.92;;;;;;;4.35;99.69;99339.69;1746960;81;21140;-78
2021/11/25 02:25:59;;;;;;;2.97;1.60;;;;;;;4.36;99.73;99334.06;1741496;81;20999;-78
2021/11/25 02:28:30;;;;;;;2.65;1.77;;;;;;;4.35;99.71;99338.39;1739729;81;21309;-78
2021/11/25 02:30:57;;;;;;;2.75;1.57;;;;;;;4.37;99.79;99338.34;1750248;81;21001;-78
2021/11/25 02:33:24;;;;;;;3.27;1.60;;;;;;;4.38;99.81;99333.59;1744791;81;21047;-78
2021/11/25 02:35:51;;;;;;;1.55;1.20;;;;;;;4.38;99.66;99338.30;1742404;80;21023;-78
2021/11/25 02:38:19;;;;;;;1.52;1.20;;;;;;;4.38;99.59;99345.22;1745984;81;21130;-78
2021/11/25 02:40:55;;;;;;;2.10;1.20;;;;;;;4.39;99.64;99341.73;1749173;81;21062;-79
2021/11/25 02:43:26;;;;;;;1.42;1.10;;;;;;;4.38;99.62;99329.70;1743662;81;21088;-78
2021/11/25 02:46:00;;;;;;;2.17;1.45;;;;;;;4.39;99.65;99331.39;1745406;81;20966;-79
2021/11/25 02:48:31;;;;;;;1.37;1.25;;;;;;;4.39;99.66;99330.09;1740283;81;20997;-79
2021/11/25 02:51:00;;;;;;;1.67;1.40;;;;;;;4.38;99.54;99333.59;1738858;81;21498;-79
2021/11/25 02:53:31;;;;;;;2.40;1.52;;;;;;;4.37;99.43;99329.29;1746254;81;21230;-79
2021/11/25 02:56:08;;;;;;;1.45;1.27;;;;;;;4.35;99.45;99325.92;1744992;81;22243;-79
2021/11/25 02:58:36;;;;;;;1.25;1.05;;;;;;;4.35;99.45;99322.05;1747268;81;20960;-79
2021/11/25 03:01:11;;;;;;;1.30;1.20;;;;;;;4.33;99.44;99323.37;1743751;81;21628;-79
2021/11/25 03:03:37;;;;;;;1.70;1.40;;;;;;;4.33;99.42;99314.77;1747062;81;20991;-79
2021/11/25 03:06:04;;;;;;;1.20;1.10;;;;;;;4.31;99.27;99308.79;1746204;80;21065;-78
2021/11/25 03:08:31;;;;;;;1.20;1.07;;;;;;;4.28;99.14;99302.42;1742902;81;21645;-79
2021/11/25 03:11:03;;;;;;;1.77;1.00;;;;;;;4.28;99.10;99302.42;1742762;81;21613;-80
2021/11/25 03:13:31;;;;;;;1.57;1.40;;;;;;;4.26;99.05;99301.19;1739692;80;21583;-80
2021/11/25 03:15:58;;;;;;;2.00;1.70;;;;;;;4.25;99.07;99296.44;1744047;81;21075;-79
2021/11/25 03:18:26;;;;;;;1.47;1.00;;;;;;;4.28;99.16;99297.25;1738258;81;21103;-79
2021/11/25 03:20:55;;;;;;;2.72;1.60;;;;;;;4.31;99.24;99297.16;1742574;81;20983;-79
2021/11/25 03:23:26;;;;;;;2.10;1.70;;;;;;;4.30;99.17;99295.48;1742444;81;22622;-79
2021/11/25 03:25:54;;;;;;;4.95;1.95;;;;;;;4.30;99.16;99286.43;1748829;81;21068;-80
2021/11/25 03:28:20;;;;;;;;;;;;;;;4.28;99.06;99286.46;1748851;81;21057;-80
2021/11/25 03:30:54;;;;;;;2.47;1.82;;;;;;;4.28;98.99;99291.63;1742221;81;21055;-79
2021/11/25 03:33:18;;;;;;;2.22;1.30;;;;;;;4.29;99.07;99288.62;1746892;81;20915;-79
2021/11/25 03:35:45;;;;;;;2.10;1.60;;;;;;;4.33;99.19;99287.63;1739377;80;21068;-80
2021/11/25 03:38:11;;;;;;;1.90;1.55;;;;;;;4.34;99.09;99278.97;1748922;81;20919;-79
2021/11/25 03:40:38;;;;;;;1.72;1.55;;;;;;;4.36;99.13;99274.62;1739215;80;21585;-80
2021/11/25 03:43:05;;;;;;;2.40;1.60;;;;;;;4.39;99.08;99274.52;1741877;81;21873;-80
2021/11/25 03:45:32;;;;;;;2.98;1.80;;;;;;;4.37;98.97;99274.59;1747210;80;20997;-80
2021/11/25 03:47:59;;;;;;;3.27;2.17;;;;;;;4.35;98.89;99270.35;1752288;80;20934;-79
2021/11/25 03:50:26;;;;;;;3.72;1.87;;;;;;;4.35;98.77;99265.19;1759968;80;21358;-80
2021/11/25 03:52:53;;;;;;;4.62;2.83;;;;;;;4.31;98.63;99264.40;1763403;80;21373;-79
2021/11/25 03:55:20;;;;;;;4.10;2.63;;;;;;;4.28;98.55;99257.19;1755047;80;21131;-79
2021/11/25 03:57:48;;;;;;;3.10;2.47;;;;;;;4.26;98.68;99260.68;1761285;80;21592;-79
2021/11/25 04:00:18;;;;;;;4.62;2.40;;;;;;;4.26;98.60;99253.37;1756814;80;21530;-79
2021/11/25 04:02:47;;;;;;;3.17;2.35;;;;;;;4.25;98.67;99256.83;1763749;80;21025;-80
2021/11/25 04:05:15;;;;;;;3.85;2.65;;;;;;;4.25;98.70;99239.58;1756990;80;21077;-79
2021/11/25 04:07:41;;;;;;;2.75;2.33;;;;;;;4.25;98.66;99251.21;1758709;80;21078;-79
2021/11/25 04:10:10;;;;;;;6.13;2.60;;;;;;;4.26;98.70;99246.47;1756237;80;21042;-79
2021/11/25 04:12:37;;;;;;;2.67;2.47;;;;;;;4.26;98.62;99243.88;1759350;80;21049;-79
2021/11/25 04:15:07;;;;;;;2.35;2.15;;;;;;;4.25;98.55;99237.00;1753817;80;21574;-79
2021/11/25 04:17:33;;;;;;;2.70;2.42;;;;;;;4.28;98.57;99227.47;1755706;80;21534;-79
2021/11/25 04:20:01;;;;;;;2.77;2.52;;;;;;;4.28;98.64;99226.17;1756867;80;21838;-79
2021/11/25 04:22:27;;;;;;;4.28;2.62;;;;;;;4.28;98.61;99222.30;1756873;80;21107;-79
2021/11/25 04:24:57;;;;;;;2.87;2.58;;;;;;;4.26;98.50;99210.28;1759428;80;21007;-79
2021/11/25 04:27:24;;;;;;;4.50;2.90;;;;;;;4.26;98.50;99212.87;1759215;80;20959;-79
2021/11/25 04:30:00;;;;;;;;;;;;;;;4.23;98.37;99206.50;1758280;80;21011;-79
2021/11/25 04:37:50;;;;;;;4.28;3.20;;;;;;;4.19;98.36;99201.00;1757344;80;20942;-79
2021/11/25 04:40:17;;;;;;;4.87;3.00;;;;;;;4.21;98.55;99191.48;1757986;80;21019;-80
2021/11/25 04:42:43;;;;;;;3.47;3.17;;;;;;;4.24;98.59;99182.79;1759452;80;22644;-80
2021/11/25 04:45:10;;;;;;;3.23;2.90;;;;;;;4.24;98.52;99178.46;1754135;80;21862;-81
2021/11/25 04:47:37;;;;;;;6.12;3.33;;;;;;;4.25;98.53;99169.80;1757727;80;21117;-80
2021/11/25 04:50:06;;;;;;;6.05;2.98;;;;;;;4.25;98.33;99165.09;1762988;80;21045;-80
2021/11/25 04:52:32;;;;;;;7.67;3.33;;;;;;;4.25;98.34;99159.47;1762603;80;21093;-80
2021/11/25 04:54:59;;;;;;;2.87;2.55;;;;;;;4.24;98.22;99155.20;1696160;81;21643;-79
2021/11/25 04:57:26;;;;;;;3.13;2.83;;;;;;;4.22;98.07;99150.97;1725928;82;21055;-80
2021/11/25 04:59:53;;;;;;;3.47;2.87;;;;;;;4.20;98.11;99156.20;1696879;83;21132;-79
2021/11/25 05:02:19;;;;;;;2.47;2.27;;;;;;;4.23;98.28;99152.23;1693286;83;21231;-79
2021/11/25 05:04:46;;;;;;;4.55;3.22;;;;;;;4.23;98.25;99149.65;1697238;83;21092;-80
2021/11/25 05:07:13;;;;;;;3.42;3.12;;;;;;;4.22;98.15;99144.06;1697584;83;21142;-79
2021/11/25 05:09:39;;;;;;;3.52;3.20;;;;;;;4.24;98.26;99140.16;1722455;81;21077;-79
2021/11/25 05:12:08;;;;;;;4.13;3.60;;;;;;;4.26;98.25;99148.26;1725866;82;21566;-80
2021/11/25 05:14:34;;;;;;;3.52;3.20;;;;;;;4.26;98.29;99147.42;1724280;82;21039;-80
2021/11/25 05:17:01;;;;;;;5.50;3.85;;;;;;;4.30;98.41;99141.70;1723178;82;21141;-79
2021/11/25 05:19:28;;;;;;;7.47;4.40;;;;;;;4.30;98.21;99142.99;1727245;81;21058;-79
2021/11/25 05:21:55;;;;;;;7.73;3.90;;;;;;;4.29;98.02;99134.85;1724967;81;21083;-79
2021/11/25 05:24:21;;;;;;;5.85;3.50;;;;;;;4.31;98.15;99138.21;1727562;81;21607;-79
2021/11/25 05:26:49;;;;;;;5.50;3.60;;;;;;;4.32;98.07;99136.05;1727147;81;21071;-78
2021/11/25 05:29:16;;;;;;;6.80;4.70;;;;;;;4.31;98.02;99129.16;1724086;81;21106;-79
2021/11/25 05:31:43;;;;;;;7.22;3.83;;;;;;;4.26;97.95;99127.59;1724652;82;21003;-79
2021/11/25 05:34:09;;;;;;;5.00;4.35;;;;;;;4.24;97.94;99120.31;1727660;82;21073;-78
2021/11/25 05:36:36;;;;;;;4.85;4.33;;;;;;;4.21;97.78;99116.54;1726361;82;21092;-79
2021/11/25 05:39:03;;;;;;;5.65;4.87;;;;;;;4.19;97.84;99118.31;1723765;81;21489;-79
2021/11/25 05:41:30;;;;;;;6.60;5.45;;;;;;;4.16;97.81;99113.25;1723689;81;21081;-79
2021/11/25 05:43:56;;;;;;;5.83;5.05;;;;;;;4.17;98.04;99112.80;1724482;81;21072;-79
2021/11/25 05:46:24;;;;;;;7.83;5.47;;;;;;;4.14;97.84;99104.69;1726745;81;21115;-79
2021/11/25 05:48:50;;;;;;;;;;;;;;;4.11;97.86;99107.38;1730319;81;21090;-78
2021/11/25 05:51:17;;;;;;;8.08;4.70;;;;;;;4.11;97.87;99103.50;1729743;81;20201;-79
2021/11/25 05:53:44;;;;;;;6.53;4.92;;;;;;;4.07;97.87;99101.91;1728763;81;22787;-79
2021/11/25 05:56:10;;;;;;;8.20;5.58;;;;;;;4.05;97.88;99094.64;1730081;81;21029;-79
2021/11/25 05:58:37;;;;;;;8.08;5.97;;;;;;;4.02;97.85;99093.00;1737191;81;21082;-79
2021/11/25 06:01:04;;;;;;;7.20;5.87;;;;;;;4.00;97.82;99092.64;1735448;81;20990;-80
2021/11/25 06:03:30;;;;;;;6.83;5.30;;;;;;;3.99;97.84;99092.25;1732232;81;21024;-79
2021/11/25 06:05:57;;;;;;;8.13;5.70;;;;;;;3.97;97.84;99091.45;1728854;81;21021;-78
2021/11/25 06:08:24;;;;;;;8.67;5.67;;;;;;;3.95;97.84;99088.06;1728699;81;21612;-79
2021/11/25 06:10:50;;;;;;;8.45;5.80;;;;;;;3.96;97.96;99089.77;1732085;81;22392;-78
2021/11/25 06:13:17;;;;;;;9.93;6.00;;;;;;;4.00;98.06;99093.94;1734875;81;21089;-79
2021/11/25 06:15:47;;;;;;;9.43;5.83;;;;;;;4.02;98.05;99079.25;1729550;81;21010;-79
2021/11/25 06:18:14;;;;;;;9.03;5.72;;;;;;;4.00;97.83;99075.86;1734584;81;21173;-79
2021/11/25 06:20:41;;;;;;;7.12;5.62;;;;;;;3.99;97.84;99079.34;1713545;82;21597;-79
2021/11/25 06:25:43;;;;;;;;;;;;;;;;;;;;;
2021/11/25 06:28:11;;;;;;;7.62;5.95;;;;;;;3.91;97.60;99069.69;1761986;78;21079;-83
2021/11/25 06:30:40;;;;;;;9.88;6.03;;;;;;;3.87;97.72;99067.66;1779169;79;21040;-88
2021/11/25 06:33:24;;;;;;;8.63;5.87;;;;;;;3.91;97.88;99058.06;1748824;80;22028;-83
2021/11/25 06:35:54;;;;;;;7.70;5.12;;;;;;;3.91;97.84;99071.82;1774923;79;21392;-86
2021/11/25 06:38:22;;;;;;;;;;;;;;;3.91;97.76;99067.95;1782864;79;21622;-85
2021/11/25 06:41:07;;;;;;;7.40;6.67;;;;;;;3.90;97.63;99064.14;1771129;80;20209;-88
2021/11/25 06:43:35;;;;;;;7.22;6.20;;;;;;;3.87;97.55;99068.11;1774078;80;21000;-87
2021/11/25 06:46:02;;;;;;;10.72;6.37;;;;;;;3.84;97.62;99064.30;1774823;80;21559;-86
2021/11/25 06:48:30;;;;;;;7.12;6.40;;;;;;;3.81;97.57;99055.77;1771827;79;21079;-85
2021/11/25 06:50:56;;;;;;;8.68;6.45;;;;;;;3.81;97.59;99055.77;1771902;79;21381;-86
2021/11/25 06:53:25;;;;;;;7.78;6.37;;;;;;;3.83;97.62;99058.29;1774027;80;20956;-88
2021/11/25 06:55:52;;;;;;;12.20;7.50;;;;;;;3.84;97.59;99052.67;1753628;80;21060;-84
2021/11/25 06:58:19;;;;;;;11.00;7.17;;;;;;;3.84;97.55;99044.93;1734702;81;27639;-84
2021/11/25 07:00:48;;;;;;;8.88;7.22;;;;;;;3.85;97.49;99035.02;1758995;81;20993;-85
2021/11/25 07:03:15;;;;;;;8.03;6.53;;;;;;;3.85;97.51;99035.02;1750983;79;21587;-82
2021/11/25 07:05:42;;;;;;;9.33;6.97;;;;;;;3.86;97.44;99028.95;1755345;79;20996;-83
2021/11/25 07:08:09;;;;;;;8.50;7.00;;;;;;;3.84;97.37;99027.72;1760235;80;21072;-83
2021/11/25 07:10:36;;;;;;;7.55;6.72;;;;;;;3.85;97.38;99029.85;1757390;80;20996;-87
2021/11/25 07:13:03;;;;;;;8.58;6.33;;;;;;;3.81;97.27;99030.41;1761730;80;21088;-86
2021/11/25 07:15:31;;;;;;;7.72;6.30;;;;;;;3.80;97.15;99021.78;1752594;81;21162;-83
2021/11/25 07:17:59;;;;;;;6.55;5.85;;;;;;;3.78;97.09;99017.14;1750472;81;21048;-85
2021/11/25 07:20:26;;;;;;;10.98;6.15;;;;;;;3.80;97.15;99014.48;1752969;81;21108;-81
2021/11/25 07:22:53;;;;;;;7.55;6.00;;;;;;;3.80;97.20;99007.58;1749668;81;20978;-83
2021/11/25 07:25:22;;;;;;;7.55;5.60;;;;;;;3.83;97.20;99010.97;1755797;81;21558;-79
2021/11/25 07:27:49;;;;;;;6.70;5.35;;;;;;;3.86;97.11;99010.87;1755786;81;21841;-81
2021/11/25 07:30:18;;;;;;;6.17;4.45;;;;;;;3.85;96.94;99009.19;1757360;80;22404;-79
2021/11/25 07:32:45;;;;;;;6.10;4.40;;;;;;;3.86;96.78;99018.62;1728670;81;21057;-79
2021/11/25 07:35:14;;;;;;;7.30;5.00;;;;;;;3.85;96.77;99008.74;1759610;81;20997;-76
2021/11/25 07:37:41;;;;;;;5.60;4.80;;;;;;;3.85;96.69;99002.73;1758392;81;21796;-82
2021/11/25 07:40:09;;;;;;;5.07;4.57;;;;;;;3.87;96.75;99003.54;1761514;81;21105;-74
2021/11/25 07:42:37;;;;;;;5.80;4.35;;;;;;;3.85;96.59;99009.19;1758989;80;21751;-80
2021/11/25 07:45:06;;;;;;;6.72;5.28;;;;;;;3.86;96.63;99010.87;1759135;80;21088;-76
2021/11/25 07:47:33;;;;;;;5.97;5.25;;;;;;;3.87;96.61;99010.00;1758987;81;21265;-84
2021/11/25 07:50:08;;;;;;;7.10;5.50;;;;;;;3.88;96.62;99012.97;1756194;81;21059;-79
2021/11/25 07:52:35;;;;;;;6.15;5.37;;;;;;;3.89;96.45;99010.77;1753409;81;20977;-80
2021/11/25 07:55:03;;;;;;;6.97;5.97;;;;;;;3.88;96.42;99004.77;1758657;81;21056;-82
2021/11/25 07:57:30;;;;;;;7.92;6.22;;;;;;;3.91;96.53;99001.25;1766237;81;21146;-84
2021/11/25 07:59:57;;;;;;;10.23;6.67;;;;;;;3.93;96.47;99005.47;1759177;81;21035;-85
2021/11/25 08:02:24;;;;;;;7.80;6.28;;;;;;;3.94;96.28;99005.02;1754958;80;21000;-83
2021/11/25 08:04:52;;;;;;;7.58;5.17;;;;;;;3.92;96.26;99001.63;1755106;81;21652;-84
2021/11/25 08:07:20;;;;;;;13.72;6.28;;;;;;;3.91;96.27;98997.38;1747171;81;21604;-82
2021/11/25 08:09:47;;;;;;;8.53;5.65;;;;;;;3.90;96.12;98999.57;1762500;81;24491;-82
2021/11/25 08:12:14;;;;;;;5.80;4.80;;;;;;;3.90;96.10;98995.70;1756879;81;20973;-86
2021/11/25 08:14:41;;;;;;;5.42;3.77;;;;;;;3.88;96.00;98985.85;1756209;81;21043;-83
2021/11/25 08:17:10;;;;;;;6.83;4.00;;;;;;;3.87;95.80;98986.75;1759902;81;21524;-82
2021/11/25 08:19:38;;;;;;;6.33;4.40;;;;;;;3.84;95.79;98975.20;1756015;81;21047;-78
2021/11/25 08:22:19;;;;;;;5.80;4.62;;;;;;;3.81;95.84;98978.75;1761002;80;22090;-81
2021/11/25 08:24:49;;;;;;;4.60;3.50;;;;;;;3.78;95.71;98973.23;1764300;81;21020;-75
2021/11/25 08:27:27;;;;;;;9.28;5.60;;;;;;;3.77;95.72;98971.53;1765376;80;21027;-79
2021/11/25 08:30:07;;;;;;;5.65;4.10;;;;;;;3.77;95.73;98971.53;1761017;80;21127;-80
2021/11/25 08:32:45;;;;;;;5.40;4.40;;;;;;;3.80;95.83;98971.43;1736160;81;21040;-78
2021/11/25 08:35:17;;;;;;;8.53;6.08;;;;;;;3.79;95.64;98969.75;1755806;81;21114;-79
2021/11/25 08:38:03;;;;;;;7.58;6.00;;;;;;;3.79;95.74;98969.75;1738535;81;21075;-79
2021/11/25 08:40:42;;;;;;;7.45;5.97;;;;;;;3.81;95.76;98965.39;1763707;81;21064;-76
2021/11/25 08:43:14;;;;;;;7.65;5.90;;;;;;;3.83;95.71;98961.91;1760935;81;21851;-75
2021/11/25 08:45:42;;;;;;;14.40;8.75;;;;;;;3.83;95.65;98959.32;1763418;81;21016;-81
2021/11/25 08:48:09;;;;;;;10.08;7.22;;;;;;;3.81;95.53;98949.89;1764603;81;22300;-78
2021/11/25 08:50:37;;;;;;;12.85;8.48;;;;;;;3.83;95.58;98948.99;1761663;81;21603;-78
2021/11/25 08:53:04;;;;;;;10.68;6.95;;;;;;;3.88;95.72;98939.36;1761421;81;21035;-73
2021/11/25 08:55:34;;;;;;;9.68;6.80;;;;;;;3.87;95.36;98936.39;1757624;81;21047;-76
2021/11/25 08:58:01;;;;;;;12.18;7.08;;;;;;;3.84;95.26;98932.59;1756989;81;21068;-76
2021/11/25 09:00:28;;;;;;;8.93;6.22;;;;;;;3.86;95.44;98934.69;1759130;81;21188;-74
2021/11/25 09:02:56;;;;;;;10.10;7.28;;;;;;;3.88;95.38;98924.70;1765525;81;20997;-77
2021/11/25 09:05:24;;;;;;;8.58;6.83;;;;;;;3.91;95.33;98923.77;1760631;81;21004;-76
2021/11/25 09:07:52;;;;;;;8.98;7.62;;;;;;;3.89;95.30;98922.96;1766781;81;21111;-76
2021/11/25 09:10:20;;;;;;;10.65;6.72;;;;;;;3.89;95.17;98916.51;1753136;81;21079;-74
2021/11/25 09:12:49;;;;;;;11.15;5.95;;;;;;;3.85;94.97;98912.35;1755579;81;21985;-75
2021/11/25 09:15:16;;;;;;;11.63;6.50;;;;;;;3.81;94.94;98906.00;1758682;80;21289;-77
2021/11/25 09:17:43;;;;;;;;;;;;;;;3.81;95.02;98900.83;1761785;81;21753;-77
2021/11/25 09:20:12;;;;;;;10.80;6.20;;;;;;;3.79;94.85;98896.16;1757882;81;20224;-76
2021/11/25 09:22:39;;;;;;;10.08;6.05;;;;;;;3.76;94.92;98892.39;1758691;81;21168;-75
2021/11/25 09:25:09;;;;;;;10.03;6.70;;;;;;;3.75;94.64;98887.27;1747175;81;21076;-77
2021/11/25 09:27:36;;;;;;;8.23;6.25;;;;;;;3.72;94.73;98888.20;1743294;81;21743;-76
2021/11/25 09:30:05;;;;;;;9.20;6.12;;;;;;;3.72;94.80;98880.45;1740878;81;21072;-77
2021/11/25 09:32:32;;;;;;;9.35;6.67;;;;;;;3.72;94.67;98877.04;1760917;79;21631;-77
2021/11/25 09:34:59;;;;;;;7.87;6.30;;;;;;;3.72;94.71;98872.71;1749326;80;21551;-78
2021/11/25 09:37:28;;;;;;;9.40;7.17;;;;;;;3.75;94.74;98864.89;1723448;81;21051;-76
2021/11/25 09:39:54;;;;;;;8.50;6.67;;;;;;;3.75;94.41;98862.31;1744939;81;22718;-76
2021/11/25 09:42:21;;;;;;;10.80;7.87;;;;;;;3.75;94.59;98863.60;1715829;81;21056;-72
2021/11/25 09:44:48;;;;;;;8.98;7.53;;;;;;;3.71;94.45;98852.96;1753046;81;20992;-71
2021/11/25 09:47:16;;;;;;;9.50;8.03;;;;;;;3.70;94.52;98850.00;1735329;81;21108;-72
2021/11/25 09:49:44;;;;;;;12.58;8.80;;;;;;;3.71;94.70;98849.09;1756307;80;21739;-72
2021/11/25 09:52:13;;;;;;;12.03;9.00;;;;;;;3.71;94.67;98834.89;1754091;80;21963;-77
2021/11/25 09:54:40;;;;;;;12.55;8.73;;;;;;;3.71;94.63;98837.47;1729767;81;21089;-80
2021/11/25 09:57:07;;;;;;;14.13;8.80;;;;;;;3.71;94.61;98828.44;1737618;81;21104;-84
2021/11/25 09:59:34;;;;;;;11.48;9.18;;;;;;;3.72;94.63;98828.82;1738423;81;21136;-81
2021/11/25 10:02:01;;;;;;;12.07;8.83;;;;;;;3.71;94.57;98824.56;1758527;80;21065;-83
2021/11/25 10:04:28;;;;;;;12.33;9.20;;;;;;;3.72;94.62;98817.20;1754803;80;22181;-74
2021/11/25 10:07:01;;;;;;;13.70;10.95;;;;;;;3.71;94.50;98821.98;1756424;80;21060;-80
2021/11/25 10:09:40;;;;;;;13.62;10.35;;;;;;;3.71;94.47;98823.72;1738860;81;21036;-81
2021/11/25 10:12:37;;;;;;;14.80;11.22;;;;;;;3.73;94.62;98820.20;1729941;81;21576;-78
2021/11/25 10:15:29;;;;;;;14.55;10.00;;;;;;;3.75;94.54;98826.16;1733308;81;21146;-77
2021/11/25 10:18:00;;;;;;;13.68;11.40;;;;;;;3.72;94.40;98815.91;1728573;81;21670;-77
2021/11/25 10:20:37;;;;;;;15.50;11.78;;;;;;;3.68;94.34;98809.63;1740931;81;21686;-77
2021/11/25 10:23:13;;;;;;;15.93;11.48;;;;;;;3.68;94.62;98805.31;1734652;81;21100;-75
2021/11/25 10:25:57;;;;;;;17.70;11.88;;;;;;;3.72;94.73;98799.13;1748559;81;21739;-86
2021/11/25 10:28:35;;;;;;;18.35;12.30;;;;;;;3.71;94.52;98801.33;1758854;81;21933;-83
2021/11/25 10:31:19;;;;;;;16.45;12.70;;;;;;;3.72;94.56;98793.97;1751021;79;21061;-76
2021/11/25 10:33:56;;;;;;;16.80;12.10;;;;;;;3.71;94.36;98801.33;1752889;81;21068;-78
2021/11/25 10:42:41;;;;;;;18.77;14.25;;;;;;;3.83;94.68;98781.14;1748600;81;21108;-77
2021/11/25 10:45:16;;;;;;;29.25;15.13;;;;;;;3.89;94.50;98768.02;1747026;81;21012;-76
2021/11/25 10:48:02;;;;;;;18.30;13.60;;;;;;;3.88;94.30;98761.17;1749885;80;21623;-86
2021/11/25 10:50:36;;;;;;;22.73;14.55;;;;;;;3.92;94.36;98754.98;1754574;81;21048;-79
2021/11/25 10:53:09;;;;;;;18.80;14.83;;;;;;;3.91;93.95;98755.89;1752799;81;21614;-80
2021/11/25 10:55:38;;;;;;;19.57;14.85;;;;;;;3.87;93.87;98753.05;1751078;81;21071;-79
2021/11/25 10:58:07;;;;;;;20.32;15.45;;;;;;;3.87;93.80;98747.88;1722686;81;21045;-79
2021/11/25 11:00:41;;;;;;;18.37;14.87;;;;;;;3.83;93.65;98750.16;1752518;79;21088;-78
2021/11/25 11:03:23;;;;;;;22.13;16.35;;;;;;;3.78;93.53;98751.17;1748868;80;20996;-78
2021/11/25 11:06:01;;;;;;;20.37;15.10;;;;;;;3.75;93.66;98735.80;1754038;80;21000;-78
2021/11/25 11:08:32;;;;;;;21.57;15.58;;;;;;;3.73;93.58;98735.00;1756533;81;21986;-78
2021/11/25 11:11:06;;;;;;;21.80;16.48;;;;;;;3.73;93.65;98725.96;1756368;80;20997;-78
2021/11/25 11:13:46;;;;;;;21.42;15.65;;;;;;;3.69;93.50;98730.82;1755006;80;22377;-83
2021/11/25 11:16:42;;;;;;;19.42;14.45;;;;;;;3.65;93.36;98729.26;1752701;79;21052;-93
2021/11/25 11:19:03;;;;;;;20.48;14.93;;;;;;;3.64;93.34;98718.97;1731644;81;21016;-80
2021/11/25 11:21:42;;;;;;;16.27;13.00;;;;;;;3.60;93.31;98706.63;1750247;80;21119;-80
2021/11/25 11:24:19;;;;;;;17.70;14.45;;;;;;;3.58;93.22;98699.38;1753703;81;21005;-85
2021/11/25 11:26:50;;;;;;;18.12;14.30;;;;;;;3.60;93.33;98689.85;1752074;81;20993;-83
2021/11/25 11:29:21;;;;;;;15.70;12.73;;;;;;;3.59;93.26;98685.59;1756016;80;22866;-77
2021/11/25 11:31:52;;;;;;;20.17;14.40;;;;;;;3.59;92.95;98683.02;1741543;80;21018;-79
2021/11/25 11:34:20;;;;;;;17.85;14.95;;;;;;;3.53;92.75;98683.23;1772398;80;22076;-80
2021/11/25 11:36:55;;;;;;;16.85;13.70;;;;;;;3.48;92.65;98678.23;1774203;79;21004;-80
2021/11/25 11:39:26;;;;;;;16.57;14.00;;;;;;;3.45;92.86;98662.02;1776688;78;21593;-81
2021/11/25 11:41:58;;;;;;;17.75;12.95;;;;;;;3.45;92.46;98669.77;1750929;80;21846;-81
2021/11/25 11:44:26;;;;;;;14.13;11.97;;;;;;;3.38;92.25;98665.69;1754879;80;20993;-83
2021/11/25 11:47:04;;;;;;;16.67;13.08;;;;;;;3.33;92.30;98662.84;1777529;79;21118;-82
2021/11/25 11:49:31;;;;;;;13.72;11.22;;;;;;;3.32;92.32;98651.27;1774892;79;21100;-80
2021/11/25 11:52:05;;;;;;;12.70;11.38;;;;;;;3.31;92.32;98653.02;1775922;78;21052;-80
2021/11/25 11:54:55;;;;;;;14.07;11.55;;;;;;;3.33;92.30;98648.66;1771246;79;21020;-79
2021/11/25 11:57:35;;;;;;;15.28;10.43;;;;;;;3.33;92.29;98633.17;1775728;78;21115;-68
2021/11/25 12:00:26;;;;;;;20.02;12.20;;;;;;;3.32;92.15;98617.73;1776768;79;21087;-67
2021/11/25 12:02:57;;;;;;;15.18;11.88;;;;;;;3.33;92.24;98615.11;1720522;82;21028;-67